Big Falls, WI (54926)

10:23 PM CDT on July 27, 2016 (GMT -0500)
WB9GBG | | Change Station

Elev 1027 ft 44.51 °N, 89.14 °W | Updated 36 seconds ago

Light Rain
Light Rain
65.3 °F
Feels Like 65.3 °F
N
3.1
Wind Variable Wind from NE
Gusts 3.1 mph

Today
High -- | Low -- °F
--% Chance of Precip.
Yesterday
High -- | Low -- °F
Precip. -- in
Pressure 29.99 in
Visibility 10.0 miles
Clouds Scattered Clouds 3700 ft
Mostly Cloudy 7500 ft
Overcast 10000 ft
Dew Point 65 °F
Humidity 99%
Rainfall 0.66 in
Snow Depth Not available.
5:37 AM 8:26 PM
Last Quarter, 37% visible
METAR KCLI 280315Z AUTO 01005KT 10SM -RA SCT037 BKN075 OVC100 18/17 A2999 RMK AO2 P0001
Pressure 29.99 in
Visibility 10.0 miles
Clouds Scattered Clouds 3700 ft
Mostly Cloudy 7500 ft
Overcast 10000 ft
Dew Point 65 °F
Humidity 99%
Rainfall 0.66 in
Snow Depth Not available.
5:37 AM 8:26 PM
Last Quarter, 37% visible
METAR KCLI 280315Z AUTO 01005KT 10SM -RA SCT037 BKN075 OVC100 18/17 A2999 RMK AO2 P0001

10-Day Weather Forecast

Almanac

Astronomy

Jul. 27, 2016 Rise Set
Actual Time
Civil Twilight
Nautical Twilight
Astronomical Twilight
Moon
Length of Visible Light
Length of Day
Tomorrow will be .
, % of the Moon is Illuminated

Today's Extremes

State Highs State Lows

Community

WunderPhotos

Upload Photos

1,928,037 photos uploaded!

WunderBlog® & News

Nearby

Air Quality

  Air Quality AQ Index Pollutant
Not available.

Snow Depth

Station Depth Elevation

Earthquake Activity

City Distance Mag. Time & Date
Minimum magnitude displayed is 2.5.

Coastal Water Temperatures

Place Temperature

Stations

Nearby Weather Stations

Station Location Temp. Windchill Dew Point Humidity Wind Precip. Elev Updated Type
                   

Watches & Warnings

There are currently no watches in effect.